createdAt,value
2022-12-03T00:01:18.294Z,-1.65
2022-12-03T00:03:46.065Z,-1.68
2022-12-03T00:06:13.864Z,-1.68
2022-12-03T00:08:41.556Z,-1.70
2022-12-03T00:11:09.307Z,-1.73
2022-12-03T00:13:36.977Z,-1.82
2022-12-03T00:16:05.405Z,-1.87
2022-12-03T00:18:33.204Z,-1.86
2022-12-03T00:21:00.956Z,-1.89
2022-12-03T00:23:28.733Z,-1.84
2022-12-03T00:25:56.430Z,-1.82
2022-12-03T00:28:24.105Z,-1.80
2022-12-03T00:30:54.164Z,-1.77
2022-12-03T00:33:22.304Z,-1.77
2022-12-03T00:35:50.122Z,-1.79
2022-12-03T00:38:17.881Z,-1.80
2022-12-03T00:40:45.576Z,-1.84
2022-12-03T00:43:13.320Z,-1.84
2022-12-03T00:45:41.096Z,-1.85
2022-12-03T00:48:08.767Z,-1.90
2022-12-03T00:50:36.448Z,-1.92
2022-12-03T00:53:04.232Z,-1.88
2022-12-03T00:55:31.979Z,-1.84
2022-12-03T00:57:59.643Z,-1.80
2022-12-03T01:00:27.431Z,-1.76
2022-12-03T01:02:55.147Z,-1.74
2022-12-03T01:05:22.835Z,-1.74
2022-12-03T01:07:50.648Z,-1.76
2022-12-03T01:10:18.418Z,-1.78
2022-12-03T01:12:46.261Z,-1.81
2022-12-03T01:15:14.073Z,-1.84
2022-12-03T01:17:41.797Z,-1.87
2022-12-03T01:20:11.198Z,-1.91
2022-12-03T01:26:06.839Z,-1.89
2022-12-03T01:28:34.631Z,-1.81
2022-12-03T01:31:21.039Z,-1.75
2022-12-03T01:33:48.820Z,-1.66
2022-12-03T01:36:16.492Z,-1.68
2022-12-03T01:38:45.069Z,-1.70
2022-12-03T01:41:12.760Z,-1.66
2022-12-03T01:43:40.560Z,-1.68
2022-12-03T01:46:10.541Z,-1.70
2022-12-03T01:48:38.450Z,-1.73
2022-12-03T01:51:07.034Z,-1.79
2022-12-03T01:53:34.897Z,-1.80
2022-12-03T01:56:02.623Z,-1.83
2022-12-03T01:58:30.639Z,-1.87
2022-12-03T02:01:04.531Z,-1.86
2022-12-03T02:03:32.326Z,-1.79
2022-12-03T02:06:00.448Z,-1.75
2022-12-03T02:08:36.295Z,-1.69
2022-12-03T02:11:31.742Z,-1.67
2022-12-03T02:14:04.153Z,-1.64
2022-12-03T02:16:32.247Z,-1.65
2022-12-03T02:19:00.090Z,-1.67
2022-12-03T02:22:00.199Z,-1.73
2022-12-03T02:24:48.410Z,-1.72
2022-12-03T02:27:16.085Z,-1.75
2022-12-03T02:29:43.946Z,-1.72
2022-12-03T02:32:11.712Z,-1.69
2022-12-03T02:34:41.301Z,-1.66
2022-12-03T02:37:15.489Z,-1.67
2022-12-03T02:39:49.623Z,-1.68
2022-12-03T02:42:36.532Z,-1.65
2022-12-03T02:45:36.246Z,-1.61
2022-12-03T02:48:08.759Z,-1.60
2022-12-03T02:50:40.132Z,-1.64
2022-12-03T02:53:19.281Z,-1.64
2022-12-03T02:55:48.573Z,-1.70
2022-12-03T02:58:17.220Z,-1.66
2022-12-03T03:00:46.511Z,-1.64
2022-12-03T03:03:14.353Z,-1.58
2022-12-03T03:05:42.335Z,-1.53
2022-12-03T03:08:11.643Z,-1.48
2022-12-03T03:10:41.040Z,-1.48
2022-12-03T03:13:14.175Z,-1.50
2022-12-03T03:15:42.878Z,-1.54
2022-12-03T03:18:12.580Z,-1.55
2022-12-03T03:20:41.207Z,-1.58
2022-12-03T03:23:11.659Z,-1.59
2022-12-03T03:25:43.429Z,-1.62
2022-12-03T03:28:12.295Z,-1.64
2022-12-03T03:30:41.761Z,-1.67
2022-12-03T03:33:11.020Z,-1.68
2022-12-03T03:35:39.610Z,-1.69
2022-12-03T03:38:08.908Z,-1.63
2022-12-03T03:40:38.447Z,-1.57
2022-12-03T03:43:07.209Z,-1.55
2022-12-03T03:45:34.956Z,-1.56
2022-12-03T03:48:02.906Z,-1.56
2022-12-03T03:50:32.051Z,-1.56
2022-12-03T03:53:02.561Z,-1.57
2022-12-03T03:55:30.696Z,-1.56
2022-12-03T03:57:58.933Z,-1.59
2022-12-03T04:00:27.170Z,-1.62
2022-12-03T04:02:55.007Z,-1.66
2022-12-03T04:05:24.336Z,-1.68
2022-12-03T04:07:52.397Z,-1.67
2022-12-03T04:10:38.695Z,-1.65
2022-12-03T04:13:06.495Z,-1.61
2022-12-03T04:15:34.546Z,-1.56
2022-12-03T04:18:21.181Z,-1.51
2022-12-03T04:20:48.835Z,-1.49
2022-12-03T04:23:16.540Z,-1.50
2022-12-03T04:26:02.885Z,-1.50
2022-12-03T04:28:49.262Z,-1.54
2022-12-03T04:31:35.646Z,-1.59
2022-12-03T04:34:22.020Z,-1.61
2022-12-03T04:36:50.923Z,-1.64
2022-12-03T04:39:18.895Z,-1.67
2022-12-03T04:41:46.794Z,-1.67
2022-12-03T04:44:33.044Z,-1.62
2022-12-03T04:47:07.036Z,-1.54
2022-12-03T04:49:37.137Z,-1.49
2022-12-03T04:52:05.765Z,-1.44
2022-12-03T04:54:34.205Z,-1.47
2022-12-03T04:57:03.171Z,-1.46
2022-12-03T04:59:31.043Z,-1.45
2022-12-03T05:01:58.953Z,-1.44
2022-12-03T05:04:26.789Z,-1.46
2022-12-03T05:06:54.536Z,-1.51
2022-12-03T05:09:22.459Z,-1.53
2022-12-03T05:11:50.147Z,-1.55
2022-12-03T05:14:17.825Z,-1.57
2022-12-03T05:16:45.701Z,-1.59
2022-12-03T05:19:13.442Z,-1.54
2022-12-03T05:25:09.372Z,-1.42
2022-12-03T05:27:37.072Z,-1.39
2022-12-03T05:30:05.405Z,-1.40
2022-12-03T05:32:33.127Z,-1.39
2022-12-03T05:35:00.848Z,-1.37
2022-12-03T05:37:28.556Z,-1.41
2022-12-03T05:39:56.213Z,-1.42
2022-12-03T05:42:42.389Z,-1.45
2022-12-03T05:45:10.650Z,-1.53
2022-12-03T05:47:38.487Z,-1.53
2022-12-03T05:50:07.001Z,-1.50
2022-12-03T05:52:34.715Z,-1.48
2022-12-03T05:55:02.383Z,-1.44
2022-12-03T05:57:30.068Z,-1.39
2022-12-03T05:59:57.717Z,-1.36
2022-12-03T06:02:25.595Z,-1.34
2022-12-03T06:04:53.796Z,-1.32
2022-12-03T06:07:21.708Z,-1.35
2022-12-03T06:09:49.379Z,-1.38
2022-12-03T06:12:17.259Z,-1.42
2022-12-03T06:14:45.038Z,-1.47
2022-12-03T06:17:12.699Z,-1.49
2022-12-03T06:19:40.475Z,-1.51
2022-12-03T06:22:08.135Z,-1.47
2022-12-03T06:24:35.834Z,-1.44
2022-12-03T06:27:04.956Z,-1.41
2022-12-03T06:29:32.704Z,-1.40
2022-12-03T06:32:00.404Z,-1.37
2022-12-03T06:34:28.065Z,-1.34
2022-12-03T06:36:55.811Z,-1.35
2022-12-03T06:39:23.601Z,-1.35
2022-12-03T06:41:51.362Z,-1.36
2022-12-03T06:44:19.156Z,-1.42
2022-12-03T06:46:47.371Z,-1.40
2022-12-03T06:49:15.154Z,-1.37
2022-12-03T06:51:42.887Z,-1.31
2022-12-03T06:54:11.988Z,-1.28
2022-12-03T06:56:45.092Z,-1.30
2022-12-03T06:59:13.829Z,-1.28
2022-12-03T07:01:41.594Z,-1.30
2022-12-03T07:04:09.953Z,-1.32
2022-12-03T07:06:37.653Z,-1.30
2022-12-03T07:09:05.425Z,-1.32
2022-12-03T07:11:33.298Z,-1.32
2022-12-03T07:14:05.539Z,-1.32
2022-12-03T07:16:37.337Z,-1.31
2022-12-03T07:19:06.274Z,-1.32
2022-12-03T07:35:09.817Z,-0.66
2022-12-03T07:37:36.537Z,-0.59
2022-12-03T07:40:04.499Z,-0.67
2022-12-03T07:42:30.877Z,-0.84
2022-12-03T07:44:57.267Z,-0.91
2022-12-03T07:47:23.549Z,-0.97
2022-12-03T07:49:49.916Z,-0.94
2022-12-03T07:52:16.347Z,-1.00
2022-12-03T07:54:43.517Z,-1.07
2022-12-03T07:57:09.808Z,-1.06
2022-12-03T07:59:36.111Z,-1.05
2022-12-03T08:02:02.854Z,-1.06
2022-12-03T08:04:29.391Z,-1.10
2022-12-03T08:06:55.712Z,-1.13
2022-12-03T08:09:22.293Z,-1.18
2022-12-03T08:11:49.488Z,-1.20
2022-12-03T08:14:17.500Z,-1.21
2022-12-03T08:16:45.535Z,-1.16
2022-12-03T08:19:14.158Z,-1.10
2022-12-03T08:21:40.912Z,-1.08
2022-12-03T08:24:20.198Z,-1.03
2022-12-03T08:26:48.233Z,-1.05
2022-12-03T08:29:17.575Z,-1.07
2022-12-03T08:31:53.701Z,-1.11
2022-12-03T08:34:20.198Z,-1.19
2022-12-03T08:36:50.705Z,-1.17
2022-12-03T08:39:20.096Z,-1.17
2022-12-03T08:42:14.018Z,-1.18
2022-12-03T08:44:40.801Z,-1.24
2022-12-03T08:47:19.395Z,-1.18
2022-12-03T08:49:59.486Z,-1.14
2022-12-03T08:52:32.025Z,-1.10
2022-12-03T08:55:02.024Z,-1.06
2022-12-03T08:57:33.993Z,-1.01
2022-12-03T09:00:14.140Z,-1.00
2022-12-03T09:02:47.050Z,-1.00
2022-12-03T09:05:25.725Z,-0.97
2022-12-03T09:07:52.072Z,-0.90
2022-12-03T09:10:18.512Z,-0.84
2022-12-03T09:12:44.834Z,-0.76
2022-12-03T09:15:11.241Z,-0.71
2022-12-03T09:17:37.966Z,-0.66
2022-12-03T09:20:05.709Z,-0.58
2022-12-03T09:22:32.161Z,-0.54
2022-12-03T09:24:58.677Z,-0.49
2022-12-03T09:27:25.252Z,-0.53
2022-12-03T09:29:51.649Z,-0.54
2022-12-03T09:32:18.843Z,-0.57
2022-12-03T09:34:45.744Z,-0.57
2022-12-03T09:37:12.113Z,-0.59
2022-12-03T09:39:38.415Z,-0.59
2022-12-03T09:42:05.044Z,-0.59
2022-12-03T09:44:33.660Z,-0.54
2022-12-03T09:47:01.282Z,-0.47
2022-12-03T09:49:29.609Z,-0.41
2022-12-03T09:51:57.784Z,-0.34
2022-12-03T09:54:27.318Z,-0.27
2022-12-03T09:56:56.529Z,-0.24
2022-12-03T09:59:27.067Z,-0.20
2022-12-03T10:01:53.993Z,-0.26
2022-12-03T10:04:20.802Z,-0.32
2022-12-03T10:06:47.430Z,-0.28
2022-12-03T10:09:21.727Z,-0.29
2022-12-03T10:11:48.477Z,-0.32
2022-12-03T10:14:17.163Z,-0.31
2022-12-03T10:16:44.399Z,-0.25
2022-12-03T10:19:32.200Z,-0.26
2022-12-03T10:21:58.861Z,-0.27
2022-12-03T10:24:28.250Z,-0.29
2022-12-03T10:26:57.682Z,-0.29
2022-12-03T10:29:35.337Z,-0.31
2022-12-03T10:32:07.900Z,-0.28
2022-12-03T10:34:36.769Z,-0.23
2022-12-03T10:37:12.357Z,-0.16
2022-12-03T10:40:08.546Z,-0.16
2022-12-03T10:42:38.014Z,-0.14
2022-12-03T10:45:11.493Z,-0.12
2022-12-03T10:47:37.918Z,-0.06
2022-12-03T10:50:14.144Z,0.00
2022-12-03T10:52:40.656Z,0.01
2022-12-03T10:55:11.443Z,0.01
2022-12-03T10:57:45.052Z,0.04
2022-12-03T11:00:18.007Z,0.06
2022-12-03T11:02:45.479Z,0.09
2022-12-03T11:05:17.517Z,0.13
2022-12-03T11:07:44.208Z,0.13
2022-12-03T11:10:18.834Z,0.15
2022-12-03T11:13:23.101Z,0.17
2022-12-03T11:15:49.449Z,0.17
2022-12-03T11:18:36.244Z,0.19
2022-12-03T11:21:13.560Z,0.19
2022-12-03T11:23:45.937Z,0.15
2022-12-03T11:26:36.755Z,0.18
2022-12-03T11:29:12.393Z,0.18
2022-12-03T11:31:41.979Z,0.19
2022-12-03T11:34:17.569Z,0.23
2022-12-03T11:37:08.978Z,0.27
2022-12-03T11:39:47.141Z,0.32
2022-12-03T11:42:25.850Z,0.37
2022-12-03T11:45:10.586Z,0.43
2022-12-03T11:47:59.544Z,0.48
2022-12-03T11:50:39.422Z,0.50
2022-12-03T11:53:20.090Z,0.47
2022-12-03T11:55:51.456Z,0.46
2022-12-03T11:58:29.854Z,0.41
2022-12-03T12:00:58.377Z,0.46
2022-12-03T12:03:26.208Z,0.51
2022-12-03T12:06:10.690Z,0.57
2022-12-03T12:08:49.978Z,0.64
2022-12-03T12:11:25.246Z,0.69
2022-12-03T12:13:55.062Z,0.69
2022-12-03T12:16:40.588Z,0.73
2022-12-03T12:19:32.030Z,0.79
2022-12-03T12:22:27.076Z,0.81
2022-12-03T12:24:54.541Z,0.82
2022-12-03T12:27:44.941Z,0.80
2022-12-03T12:30:16.766Z,0.75
2022-12-03T12:32:46.759Z,0.75
2022-12-03T12:35:32.162Z,0.79
2022-12-03T12:38:08.000Z,0.79
2022-12-03T12:40:38.057Z,0.79
2022-12-03T12:43:14.357Z,0.74
2022-12-03T12:45:44.597Z,0.75
2022-12-03T12:48:13.869Z,0.75
2022-12-03T12:50:42.782Z,0.74
2022-12-03T12:53:33.858Z,0.69
2022-12-03T12:56:13.414Z,0.66
2022-12-03T12:58:41.273Z,0.73
2022-12-03T13:01:19.174Z,0.77
2022-12-03T13:03:50.341Z,0.81
2022-12-03T13:06:18.570Z,0.81
2022-12-03T13:08:48.221Z,0.86
2022-12-03T13:11:20.397Z,0.86
2022-12-03T13:13:46.687Z,0.85
2022-12-03T13:16:22.543Z,0.86
2022-12-03T13:18:53.833Z,0.83
2022-12-03T13:21:30.805Z,0.80
2022-12-03T13:23:57.236Z,0.81
2022-12-03T13:26:39.529Z,0.84
2022-12-03T13:29:18.231Z,0.87
2022-12-03T13:31:56.076Z,0.87
2022-12-03T13:34:30.390Z,0.85
2022-12-03T13:39:47.872Z,0.87
2022-12-03T13:42:33.099Z,0.85
2022-12-03T13:45:02.156Z,0.85
2022-12-03T13:47:28.441Z,0.87
2022-12-03T13:50:02.917Z,0.88
2022-12-03T13:52:32.026Z,0.87
2022-12-03T13:54:58.369Z,0.85
2022-12-03T13:57:24.906Z,0.81
2022-12-03T13:59:51.445Z,0.80
2022-12-03T14:02:18.230Z,0.78
2022-12-03T14:04:44.646Z,0.78
2022-12-03T14:07:10.956Z,0.80
2022-12-03T14:09:37.255Z,0.81
2022-12-03T14:12:22.399Z,0.86
2022-12-03T14:14:49.043Z,0.87
2022-12-03T14:17:15.366Z,0.89
2022-12-03T14:19:42.315Z,0.93
2022-12-03T14:22:09.363Z,0.97
2022-12-03T14:24:36.987Z,0.98
2022-12-03T14:27:03.398Z,0.94
2022-12-03T14:29:29.729Z,0.93
2022-12-03T14:31:56.401Z,0.91
2022-12-03T14:34:22.846Z,0.91
2022-12-03T14:36:50.237Z,0.88
2022-12-03T14:39:16.550Z,0.89
2022-12-03T14:42:01.344Z,0.85
2022-12-03T14:44:27.659Z,0.81
2022-12-03T14:46:57.343Z,0.82
2022-12-03T14:49:24.415Z,0.85
2022-12-03T14:51:50.712Z,0.86
2022-12-03T14:54:17.148Z,0.92
2022-12-03T14:56:43.442Z,0.95
2022-12-03T14:59:10.126Z,0.98
2022-12-03T15:01:36.492Z,1.01
2022-12-03T15:04:02.879Z,1.08
2022-12-03T15:06:29.258Z,1.07
2022-12-03T15:08:55.591Z,1.03
2022-12-03T15:11:22.214Z,1.07
2022-12-03T15:13:48.577Z,1.06
2022-12-03T15:16:15.374Z,1.07
2022-12-03T15:18:41.726Z,1.04
2022-12-03T15:21:08.332Z,1.08
2022-12-03T15:27:13.027Z,1.14
2022-12-03T15:29:41.186Z,1.12
2022-12-03T15:32:08.841Z,1.08
2022-12-03T15:34:36.510Z,1.03
2022-12-03T15:37:04.248Z,1.07
2022-12-03T15:39:32.984Z,1.13
2022-12-03T15:42:00.684Z,1.19
2022-12-03T15:44:28.442Z,1.24
2022-12-03T15:46:56.191Z,1.26
2022-12-03T15:49:23.940Z,1.29
2022-12-03T15:51:51.677Z,1.29
2022-12-03T15:54:19.789Z,1.26
2022-12-03T15:56:48.278Z,1.17
2022-12-03T15:59:18.150Z,1.17
2022-12-03T16:01:45.893Z,1.16
2022-12-03T16:04:13.625Z,1.17
2022-12-03T16:06:41.404Z,1.14
2022-12-03T16:09:09.134Z,1.15
2022-12-03T16:11:36.851Z,1.14
2022-12-03T16:14:04.653Z,1.11
2022-12-03T16:16:32.481Z,1.14
2022-12-03T16:19:00.306Z,1.13
2022-12-03T16:21:28.158Z,1.10
2022-12-03T16:23:56.058Z,1.04
2022-12-03T16:26:24.472Z,1.02
2022-12-03T16:28:52.415Z,0.98
2022-12-03T16:31:20.637Z,0.99
2022-12-03T16:33:48.843Z,0.99
2022-12-03T16:36:17.028Z,0.98
2022-12-03T16:38:44.909Z,0.99
2022-12-03T16:41:13.896Z,1.03
2022-12-03T16:43:41.719Z,1.04
2022-12-03T16:46:19.324Z,1.07
2022-12-03T16:48:54.234Z,1.11
2022-12-03T16:51:22.755Z,1.10
2022-12-03T16:53:51.277Z,1.13
2022-12-03T16:56:21.004Z,1.10
2022-12-03T16:58:48.771Z,1.12
2022-12-03T17:01:16.826Z,1.07
2022-12-03T17:03:44.669Z,1.05
2022-12-03T17:06:12.369Z,1.04
2022-12-03T17:08:44.382Z,1.09
2022-12-03T17:11:15.221Z,1.11
2022-12-03T17:13:42.917Z,1.07
2022-12-03T17:16:11.180Z,1.02
2022-12-03T17:18:39.223Z,1.02
2022-12-03T17:21:06.907Z,0.99
2022-12-03T17:23:34.848Z,0.98
2022-12-03T17:26:02.509Z,0.98
2022-12-03T17:28:30.237Z,0.97
2022-12-03T17:30:58.039Z,0.99
2022-12-03T17:33:26.106Z,1.03
2022-12-03T17:35:53.820Z,1.04
2022-12-03T17:38:21.572Z,1.05
2022-12-03T17:40:49.396Z,1.06
2022-12-03T17:43:17.216Z,1.04
2022-12-03T17:45:44.987Z,1.07
2022-12-03T17:48:12.764Z,1.04
2022-12-03T17:50:40.542Z,1.01
2022-12-03T17:53:10.402Z,1.00
2022-12-03T17:55:44.335Z,0.95
2022-12-03T17:58:13.683Z,0.93
2022-12-03T18:00:41.525Z,0.91
2022-12-03T18:03:09.395Z,0.91
2022-12-03T18:05:37.311Z,0.92
2022-12-03T18:08:06.001Z,0.96
2022-12-03T18:10:33.814Z,0.90
2022-12-03T18:13:02.443Z,0.88
2022-12-03T18:15:31.276Z,0.87
2022-12-03T18:17:59.058Z,0.89
2022-12-03T18:20:27.142Z,0.89
2022-12-03T18:22:54.867Z,0.89
2022-12-03T18:25:22.871Z,0.91
2022-12-03T18:27:50.875Z,0.96
2022-12-03T18:30:19.013Z,0.95
2022-12-03T18:32:47.883Z,0.96
2022-12-03T18:35:15.726Z,0.99
2022-12-03T18:37:43.656Z,1.00
2022-12-03T18:40:21.495Z,0.99
2022-12-03T18:42:49.380Z,1.04
2022-12-03T18:45:17.190Z,1.08
2022-12-03T18:47:45.318Z,1.11
2022-12-03T18:50:13.995Z,1.13
2022-12-03T18:52:42.449Z,1.18
2022-12-03T18:55:18.548Z,1.23
2022-12-03T18:57:46.276Z,1.21
2022-12-03T19:00:14.870Z,1.19
2022-12-03T19:05:33.416Z,1.24
2022-12-03T19:08:02.170Z,1.25
2022-12-03T19:10:30.908Z,1.22
2022-12-03T19:12:59.225Z,1.22
2022-12-03T19:15:27.187Z,1.21
2022-12-03T19:17:55.219Z,1.21
2022-12-03T19:20:23.175Z,1.25
2022-12-03T19:22:51.025Z,1.27
2022-12-03T19:25:18.887Z,1.30
2022-12-03T19:27:46.795Z,1.27
2022-12-03T19:30:14.611Z,1.27
2022-12-03T19:32:42.512Z,1.26
2022-12-03T19:35:11.453Z,1.28
2022-12-03T19:37:39.496Z,1.27
2022-12-03T19:40:10.272Z,1.27
2022-12-03T19:42:39.434Z,1.25
2022-12-03T19:45:08.302Z,1.22
2022-12-03T19:47:37.477Z,1.25
2022-12-03T19:50:05.946Z,1.30
2022-12-03T19:52:36.211Z,1.29
2022-12-03T19:55:04.430Z,1.28
2022-12-03T19:57:32.283Z,1.32
2022-12-03T20:00:01.290Z,1.35
2022-12-03T20:02:29.800Z,1.32
2022-12-03T20:04:57.879Z,1.35
2022-12-03T20:07:26.203Z,1.39
2022-12-03T20:09:54.642Z,1.38
2022-12-03T20:12:22.724Z,1.35
2022-12-03T20:14:51.728Z,1.30
2022-12-03T20:17:19.588Z,1.31
2022-12-03T20:19:47.438Z,1.34
2022-12-03T20:22:15.153Z,1.39
2022-12-03T20:24:42.943Z,1.33
2022-12-03T20:27:10.792Z,1.35
2022-12-03T20:29:39.531Z,1.39
2022-12-03T20:32:07.711Z,1.43
2022-12-03T20:34:36.388Z,1.45
2022-12-03T20:37:04.208Z,1.45
2022-12-03T20:39:31.953Z,1.41
2022-12-03T20:41:59.719Z,1.38
2022-12-03T20:44:27.501Z,1.32
2022-12-03T20:46:55.544Z,1.37
2022-12-03T20:49:23.358Z,1.34
2022-12-03T20:51:51.222Z,1.37
2022-12-03T20:54:18.976Z,1.37
2022-12-03T20:56:46.718Z,1.34
2022-12-03T20:59:16.820Z,1.36
2022-12-03T21:01:45.374Z,1.34
2022-12-03T21:04:18.027Z,1.32
2022-12-03T21:06:46.277Z,1.33
2022-12-03T21:09:14.168Z,1.32
2022-12-03T21:11:42.658Z,1.35
2022-12-03T21:14:11.503Z,1.34
2022-12-03T21:17:06.479Z,1.33
2022-12-03T21:19:27.934Z,1.33
2022-12-03T21:21:55.874Z,1.32
2022-12-03T21:24:23.706Z,1.32
2022-12-03T21:26:51.761Z,1.35
2022-12-03T21:29:20.594Z,1.39
2022-12-03T21:31:48.656Z,1.37
2022-12-03T21:34:18.583Z,1.36
2022-12-03T21:36:46.578Z,1.35
2022-12-03T21:39:15.897Z,1.32
2022-12-03T21:42:22.158Z,1.32
2022-12-03T21:44:35.184Z,1.31
2022-12-03T21:47:11.822Z,1.32
2022-12-03T21:49:41.897Z,1.24
2022-12-03T21:52:10.506Z,1.19
2022-12-03T21:54:39.833Z,1.20
2022-12-03T21:57:07.627Z,1.16
2022-12-03T21:59:35.610Z,1.13
2022-12-03T22:02:03.886Z,1.12
2022-12-03T22:04:31.821Z,1.12
2022-12-03T22:06:59.882Z,1.08
2022-12-03T22:09:30.356Z,1.09
2022-12-03T22:12:00.781Z,1.07
2022-12-03T22:14:28.805Z,1.11
2022-12-03T22:16:56.656Z,1.06
2022-12-03T22:19:26.322Z,1.06
2022-12-03T22:21:54.271Z,1.04
2022-12-03T22:24:23.764Z,1.04
2022-12-03T22:26:53.487Z,1.01
2022-12-03T22:29:21.535Z,1.02
2022-12-03T22:31:49.275Z,1.04
2022-12-03T22:34:16.945Z,1.05
2022-12-03T22:36:44.673Z,1.04
2022-12-03T22:39:12.911Z,1.02
2022-12-03T22:41:40.808Z,1.02
2022-12-03T22:44:08.559Z,1.02
2022-12-03T22:46:36.424Z,1.01
2022-12-03T22:49:07.329Z,0.99
2022-12-03T22:51:35.820Z,0.99
2022-12-03T22:54:03.876Z,1.00
2022-12-03T22:56:32.058Z,1.01
2022-12-03T22:59:00.121Z,1.01
2022-12-03T23:01:31.035Z,1.02
2022-12-03T23:03:59.372Z,0.99
2022-12-03T23:06:28.838Z,1.02
2022-12-03T23:08:58.145Z,1.00
2022-12-03T23:11:26.625Z,1.02
2022-12-03T23:13:54.941Z,1.06
2022-12-03T23:16:27.494Z,1.06
2022-12-03T23:18:57.050Z,1.04
2022-12-03T23:21:30.218Z,1.04
2022-12-03T23:23:59.584Z,1.04
2022-12-03T23:26:28.518Z,1.04
2022-12-03T23:28:56.582Z,1.03
2022-12-03T23:31:26.279Z,1.01
2022-12-03T23:33:54.725Z,1.00
2022-12-03T23:36:24.293Z,0.98
2022-12-03T23:38:52.056Z,0.97
2022-12-03T23:41:21.518Z,0.95
2022-12-03T23:43:49.625Z,0.93
2022-12-03T23:46:21.084Z,0.93
2022-12-03T23:48:50.182Z,0.90
2022-12-03T23:51:20.953Z,0.88
2022-12-03T23:53:48.783Z,0.86
2022-12-03T23:56:19.691Z,0.83
2022-12-03T23:58:47.956Z,0.83
